sensor_id;sensor_type;location;lat;lon;timestamp;P1;durP1;ratioP1;P2;durP2;ratioP2
40541;SDS011;49288;52.194;5.676;2022-09-09T00:02:49;5.63;;;2.58;;
40541;SDS011;49288;52.194;5.676;2022-09-09T00:08:01;5.57;;;2.60;;
40541;SDS011;49288;52.194;5.676;2022-09-09T01:07:25;6.80;;;3.37;;
40541;SDS011;49288;52.194;5.676;2022-09-09T01:12:38;6.15;;;3.28;;
40541;SDS011;49288;52.194;5.676;2022-09-09T01:17:51;15.38;;;4.10;;
40541;SDS011;49288;52.194;5.676;2022-09-09T01:28:56;7.57;;;4.05;;
40541;SDS011;49288;52.194;5.676;2022-09-09T01:34:13;7.38;;;4.47;;
40541;SDS011;49288;52.194;5.676;2022-09-09T01:39:19;7.82;;;4.85;;
40541;SDS011;49288;52.194;5.676;2022-09-09T01:44:30;12.30;;;5.38;;
40541;SDS011;49288;52.194;5.676;2022-09-09T01:49:35;9.07;;;4.47;;
40541;SDS011;49288;52.194;5.676;2022-09-09T01:54:48;9.52;;;5.45;;
40541;SDS011;49288;52.194;5.676;2022-09-09T02:10:32;7.20;;;4.18;;
40541;SDS011;49288;52.194;5.676;2022-09-09T02:21:16;12.35;;;5.07;;
40541;SDS011;49288;52.194;5.676;2022-09-09T02:26:20;16.95;;;6.07;;
40541;SDS011;49288;52.194;5.676;2022-09-09T02:31:29;11.30;;;6.72;;
40541;SDS011;49288;52.194;5.676;2022-09-09T02:36:38;16.17;;;7.53;;
40541;SDS011;49288;52.194;5.676;2022-09-09T02:41:42;14.13;;;6.50;;
40541;SDS011;49288;52.194;5.676;2022-09-09T02:52:14;9.82;;;5.45;;
40541;SDS011;49288;52.194;5.676;2022-09-09T02:57:22;9.27;;;5.78;;
40541;SDS011;49288;52.194;5.676;2022-09-09T03:02:28;9.18;;;5.03;;
40541;SDS011;49288;52.194;5.676;2022-09-09T03:07:38;15.98;;;6.28;;
40541;SDS011;49288;52.194;5.676;2022-09-09T03:12:43;6.50;;;4.53;;
40541;SDS011;49288;52.194;5.676;2022-09-09T03:17:47;15.15;;;6.05;;
40541;SDS011;49288;52.194;5.676;2022-09-09T03:22:50;10.88;;;5.20;;
40541;SDS011;49288;52.194;5.676;2022-09-09T03:27:53;12.65;;;5.65;;
40541;SDS011;49288;52.194;5.676;2022-09-09T03:32:58;10.98;;;5.00;;
40541;SDS011;49288;52.194;5.676;2022-09-09T03:38:06;12.18;;;6.97;;
40541;SDS011;49288;52.194;5.676;2022-09-09T03:43:11;12.90;;;6.35;;
40541;SDS011;49288;52.194;5.676;2022-09-09T03:48:14;10.80;;;6.18;;
40541;SDS011;49288;52.194;5.676;2022-09-09T03:53:20;18.13;;;6.57;;
40541;SDS011;49288;52.194;5.676;2022-09-09T03:58:25;12.88;;;6.55;;
40541;SDS011;49288;52.194;5.676;2022-09-09T04:03:33;16.48;;;7.45;;
40541;SDS011;49288;52.194;5.676;2022-09-09T04:08:37;12.77;;;6.78;;
40541;SDS011;49288;52.194;5.676;2022-09-09T04:13:41;16.10;;;7.35;;
40541;SDS011;49288;52.194;5.676;2022-09-09T04:18:47;13.27;;;6.50;;
40541;SDS011;49288;52.194;5.676;2022-09-09T04:23:51;18.50;;;7.50;;
40541;SDS011;49288;52.194;5.676;2022-09-09T04:28:54;17.40;;;6.50;;
40541;SDS011;49288;52.194;5.676;2022-09-09T04:33:58;19.52;;;7.50;;
40541;SDS011;49288;52.194;5.676;2022-09-09T04:39:08;14.60;;;6.80;;
40541;SDS011;49288;52.194;5.676;2022-09-09T04:44:10;14.88;;;6.30;;
40541;SDS011;49288;52.194;5.676;2022-09-09T04:49:13;15.27;;;6.97;;
40541;SDS011;49288;52.194;5.676;2022-09-09T04:54:18;13.63;;;7.30;;
40541;SDS011;49288;52.194;5.676;2022-09-09T04:59:22;15.07;;;7.57;;
40541;SDS011;49288;52.194;5.676;2022-09-09T05:04:29;19.20;;;8.32;;
40541;SDS011;49288;52.194;5.676;2022-09-09T05:09:32;16.05;;;7.53;;
40541;SDS011;49288;52.194;5.676;2022-09-09T05:14:36;17.20;;;7.47;;
40541;SDS011;49288;52.194;5.676;2022-09-09T05:24:43;21.30;;;7.22;;
40541;SDS011;49288;52.194;5.676;2022-09-09T05:29:47;28.88;;;8.60;;
40541;SDS011;49288;52.194;5.676;2022-09-09T05:34:50;23.70;;;8.45;;
40541;SDS011;49288;52.194;5.676;2022-09-09T05:39:54;24.67;;;7.67;;
40541;SDS011;49288;52.194;5.676;2022-09-09T05:44:58;15.35;;;7.55;;
40541;SDS011;49288;52.194;5.676;2022-09-09T05:50:01;12.88;;;7.10;;
40541;SDS011;49288;52.194;5.676;2022-09-09T05:55:05;20.48;;;7.35;;
40541;SDS011;49288;52.194;5.676;2022-09-09T06:00:08;17.80;;;6.55;;
40541;SDS011;49288;52.194;5.676;2022-09-09T06:05:15;15.32;;;7.90;;
40541;SDS011;49288;52.194;5.676;2022-09-09T06:10:18;27.98;;;8.10;;
40541;SDS011;49288;52.194;5.676;2022-09-09T06:15:21;15.52;;;7.15;;
40541;SDS011;49288;52.194;5.676;2022-09-09T06:20:24;22.88;;;8.40;;
40541;SDS011;49288;52.194;5.676;2022-09-09T06:25:27;21.65;;;8.30;;
40541;SDS011;49288;52.194;5.676;2022-09-09T06:30:30;22.58;;;5.82;;
40541;SDS011;49288;52.194;5.676;2022-09-09T06:35:34;15.63;;;5.17;;
40541;SDS011;49288;52.194;5.676;2022-09-09T06:40:38;10.23;;;3.77;;
40541;SDS011;49288;52.194;5.676;2022-09-09T06:45:43;15.40;;;4.20;;
40541;SDS011;49288;52.194;5.676;2022-09-09T06:50:46;16.95;;;4.72;;
40541;SDS011;49288;52.194;5.676;2022-09-09T06:55:49;12.63;;;5.47;;
40541;SDS011;49288;52.194;5.676;2022-09-09T07:01:05;16.05;;;4.38;;
40541;SDS011;49288;52.194;5.676;2022-09-09T07:06:13;9.98;;;4.55;;
40541;SDS011;49288;52.194;5.676;2022-09-09T07:11:20;22.83;;;4.90;;
40541;SDS011;49288;52.194;5.676;2022-09-09T07:16:25;18.98;;;4.60;;
40541;SDS011;49288;52.194;5.676;2022-09-09T07:21:33;19.48;;;5.65;;
40541;SDS011;49288;52.194;5.676;2022-09-09T07:26:55;14.35;;;4.43;;
40541;SDS011;49288;52.194;5.676;2022-09-09T07:32:20;11.68;;;3.72;;
40541;SDS011;49288;52.194;5.676;2022-09-09T07:37:24;12.90;;;3.80;;
40541;SDS011;49288;52.194;5.676;2022-09-09T07:42:28;14.37;;;4.50;;
40541;SDS011;49288;52.194;5.676;2022-09-09T07:47:33;12.68;;;4.05;;
40541;SDS011;49288;52.194;5.676;2022-09-09T07:52:38;13.32;;;4.85;;
40541;SDS011;49288;52.194;5.676;2022-09-09T07:57:42;11.98;;;5.40;;
40541;SDS011;49288;52.194;5.676;2022-09-09T08:02:45;24.75;;;6.43;;
40541;SDS011;49288;52.194;5.676;2022-09-09T08:07:49;17.10;;;4.80;;
40541;SDS011;49288;52.194;5.676;2022-09-09T08:12:53;13.73;;;4.70;;
40541;SDS011;49288;52.194;5.676;2022-09-09T08:18:16;20.55;;;5.10;;
40541;SDS011;49288;52.194;5.676;2022-09-09T08:23:20;18.48;;;4.60;;
40541;SDS011;49288;52.194;5.676;2022-09-09T08:28:23;10.68;;;4.30;;
40541;SDS011;49288;52.194;5.676;2022-09-09T08:33:27;10.23;;;3.83;;
40541;SDS011;49288;52.194;5.676;2022-09-09T08:38:30;12.20;;;3.83;;
40541;SDS011;49288;52.194;5.676;2022-09-09T08:43:33;20.05;;;4.22;;
40541;SDS011;49288;52.194;5.676;2022-09-09T08:54:09;21.97;;;4.57;;
40541;SDS011;49288;52.194;5.676;2022-09-09T08:59:12;16.73;;;5.07;;
40541;SDS011;49288;52.194;5.676;2022-09-09T09:04:33;17.30;;;4.22;;
40541;SDS011;49288;52.194;5.676;2022-09-09T09:15:41;17.35;;;3.90;;
40541;SDS011;49288;52.194;5.676;2022-09-09T09:26:01;16.40;;;4.30;;
40541;SDS011;49288;52.194;5.676;2022-09-09T09:31:10;15.57;;;4.50;;
40541;SDS011;49288;52.194;5.676;2022-09-09T09:36:18;15.77;;;4.20;;
40541;SDS011;49288;52.194;5.676;2022-09-09T09:41:57;15.05;;;4.28;;
40541;SDS011;49288;52.194;5.676;2022-09-09T09:47:08;14.25;;;3.67;;
40541;SDS011;49288;52.194;5.676;2022-09-09T09:52:40;11.85;;;3.30;;
40541;SDS011;49288;52.194;5.676;2022-09-09T09:57:46;11.45;;;3.85;;
40541;SDS011;49288;52.194;5.676;2022-09-09T10:02:49;17.80;;;3.40;;
40541;SDS011;49288;52.194;5.676;2022-09-09T10:35:24;18.95;;;4.00;;
40541;SDS011;49288;52.194;5.676;2022-09-09T10:41:07;18.25;;;4.30;;
40541;SDS011;49288;52.194;5.676;2022-09-09T10:51:36;16.30;;;3.90;;
40541;SDS011;49288;52.194;5.676;2022-09-09T10:57:23;15.25;;;4.20;;
40541;SDS011;49288;52.194;5.676;2022-09-09T11:02:34;14.52;;;3.97;;
40541;SDS011;49288;52.194;5.676;2022-09-09T11:07:39;11.23;;;3.45;;
40541;SDS011;49288;52.194;5.676;2022-09-09T11:12:43;11.18;;;3.67;;
40541;SDS011;49288;52.194;5.676;2022-09-09T11:17:50;11.63;;;3.72;;
40541;SDS011;49288;52.194;5.676;2022-09-09T11:23:11;16.20;;;4.20;;
40541;SDS011;49288;52.194;5.676;2022-09-09T11:28:20;21.30;;;4.63;;
40541;SDS011;49288;52.194;5.676;2022-09-09T11:44:44;15.95;;;4.68;;
40541;SDS011;49288;52.194;5.676;2022-09-09T11:49:48;13.20;;;4.38;;
40541;SDS011;49288;52.194;5.676;2022-09-09T11:54:51;16.08;;;5.15;;
40541;SDS011;49288;52.194;5.676;2022-09-09T11:59:54;16.67;;;4.67;;
40541;SDS011;49288;52.194;5.676;2022-09-09T12:05:02;11.35;;;4.22;;
40541;SDS011;49288;52.194;5.676;2022-09-09T12:15:25;16.50;;;4.50;;
40541;SDS011;49288;52.194;5.676;2022-09-09T12:20:35;9.43;;;3.78;;
40541;SDS011;49288;52.194;5.676;2022-09-09T12:36:33;7.50;;;3.15;;
40541;SDS011;49288;52.194;5.676;2022-09-09T12:41:36;5.93;;;2.80;;
40541;SDS011;49288;52.194;5.676;2022-09-09T12:46:39;11.05;;;3.58;;
40541;SDS011;49288;52.194;5.676;2022-09-09T12:51:44;11.60;;;3.92;;
40541;SDS011;49288;52.194;5.676;2022-09-09T12:56:48;10.38;;;3.17;;
40541;SDS011;49288;52.194;5.676;2022-09-09T13:01:57;12.47;;;3.83;;
40541;SDS011;49288;52.194;5.676;2022-09-09T13:07:07;15.95;;;4.22;;
40541;SDS011;49288;52.194;5.676;2022-09-09T13:12:16;9.43;;;3.83;;
40541;SDS011;49288;52.194;5.676;2022-09-09T13:17:22;9.32;;;3.78;;
40541;SDS011;49288;52.194;5.676;2022-09-09T13:22:36;10.07;;;3.35;;
40541;SDS011;49288;52.194;5.676;2022-09-09T13:27:51;7.97;;;3.40;;
40541;SDS011;49288;52.194;5.676;2022-09-09T13:33:02;11.10;;;3.17;;
40541;SDS011;49288;52.194;5.676;2022-09-09T13:38:21;14.80;;;4.10;;
40541;SDS011;49288;52.194;5.676;2022-09-09T13:43:36;11.55;;;3.97;;
40541;SDS011;49288;52.194;5.676;2022-09-09T13:48:53;12.20;;;4.25;;
40541;SDS011;49288;52.194;5.676;2022-09-09T13:59:04;10.35;;;5.05;;
40541;SDS011;49288;52.194;5.676;2022-09-09T14:04:08;16.50;;;4.88;;
40541;SDS011;49288;52.194;5.676;2022-09-09T14:09:14;11.88;;;4.43;;
40541;SDS011;49288;52.194;5.676;2022-09-09T14:14:17;11.35;;;4.28;;
40541;SDS011;49288;52.194;5.676;2022-09-09T14:19:21;15.30;;;5.00;;
40541;SDS011;49288;52.194;5.676;2022-09-09T14:24:24;16.23;;;4.60;;
40541;SDS011;49288;52.194;5.676;2022-09-09T14:29:45;11.32;;;4.13;;
40541;SDS011;49288;52.194;5.676;2022-09-09T14:34:48;10.43;;;3.75;;
40541;SDS011;49288;52.194;5.676;2022-09-09T14:39:51;8.93;;;3.47;;
40541;SDS011;49288;52.194;5.676;2022-09-09T14:44:56;9.85;;;3.40;;
40541;SDS011;49288;52.194;5.676;2022-09-09T14:49:59;11.48;;;4.05;;
40541;SDS011;49288;52.194;5.676;2022-09-09T14:55:05;10.68;;;3.40;;
40541;SDS011;49288;52.194;5.676;2022-09-09T15:00:09;11.10;;;4.15;;
40541;SDS011;49288;52.194;5.676;2022-09-09T15:05:13;7.00;;;4.05;;
40541;SDS011;49288;52.194;5.676;2022-09-09T15:10:17;12.40;;;4.22;;
40541;SDS011;49288;52.194;5.676;2022-09-09T15:15:20;10.80;;;4.00;;
40541;SDS011;49288;52.194;5.676;2022-09-09T15:20:23;9.13;;;3.50;;
40541;SDS011;49288;52.194;5.676;2022-09-09T15:25:25;14.68;;;4.53;;
40541;SDS011;49288;52.194;5.676;2022-09-09T15:30:28;13.10;;;3.10;;
40541;SDS011;49288;52.194;5.676;2022-09-09T15:35:32;10.87;;;3.80;;
40541;SDS011;49288;52.194;5.676;2022-09-09T15:40:37;17.13;;;4.40;;
40541;SDS011;49288;52.194;5.676;2022-09-09T15:45:41;11.70;;;3.75;;
40541;SDS011;49288;52.194;5.676;2022-09-09T15:50:44;11.00;;;4.57;;
40541;SDS011;49288;52.194;5.676;2022-09-09T15:55:47;7.35;;;4.10;;
40541;SDS011;49288;52.194;5.676;2022-09-09T16:00:53;11.13;;;4.07;;
40541;SDS011;49288;52.194;5.676;2022-09-09T16:05:58;10.10;;;3.80;;
40541;SDS011;49288;52.194;5.676;2022-09-09T16:11:07;8.73;;;3.70;;
40541;SDS011;49288;52.194;5.676;2022-09-09T16:16:30;7.13;;;3.25;;
40541;SDS011;49288;52.194;5.676;2022-09-09T16:21:51;6.53;;;2.50;;
40541;SDS011;49288;52.194;5.676;2022-09-09T16:26:54;7.57;;;3.42;;
40541;SDS011;49288;52.194;5.676;2022-09-09T16:31:56;11.25;;;3.63;;
40541;SDS011;49288;52.194;5.676;2022-09-09T16:37:06;8.00;;;3.55;;
40541;SDS011;49288;52.194;5.676;2022-09-09T16:42:08;8.48;;;2.92;;
40541;SDS011;49288;52.194;5.676;2022-09-09T16:47:12;9.85;;;3.55;;
40541;SDS011;49288;52.194;5.676;2022-09-09T16:52:15;12.38;;;3.40;;
40541;SDS011;49288;52.194;5.676;2022-09-09T16:57:21;13.48;;;3.65;;
40541;SDS011;49288;52.194;5.676;2022-09-09T17:02:24;7.53;;;3.40;;
40541;SDS011;49288;52.194;5.676;2022-09-09T17:07:27;9.50;;;4.00;;
40541;SDS011;49288;52.194;5.676;2022-09-09T17:12:30;9.07;;;3.30;;
40541;SDS011;49288;52.194;5.676;2022-09-09T17:17:33;11.05;;;4.03;;
40541;SDS011;49288;52.194;5.676;2022-09-09T17:22:37;7.57;;;3.53;;
40541;SDS011;49288;52.194;5.676;2022-09-09T17:27:40;10.20;;;3.72;;
40541;SDS011;49288;52.194;5.676;2022-09-09T17:32:43;8.65;;;4.40;;
40541;SDS011;49288;52.194;5.676;2022-09-09T17:37:48;9.35;;;4.38;;
40541;SDS011;49288;52.194;5.676;2022-09-09T17:42:51;6.88;;;3.75;;
40541;SDS011;49288;52.194;5.676;2022-09-09T17:47:54;12.77;;;4.20;;
40541;SDS011;49288;52.194;5.676;2022-09-09T17:52:57;9.63;;;4.43;;
40541;SDS011;49288;52.194;5.676;2022-09-09T17:58:00;8.65;;;4.38;;
40541;SDS011;49288;52.194;5.676;2022-09-09T18:03:03;10.18;;;4.05;;
40541;SDS011;49288;52.194;5.676;2022-09-09T18:08:06;11.93;;;5.07;;
40541;SDS011;49288;52.194;5.676;2022-09-09T18:13:09;12.93;;;5.85;;
40541;SDS011;49288;52.194;5.676;2022-09-09T18:18:12;12.80;;;7.60;;
40541;SDS011;49288;52.194;5.676;2022-09-09T18:23:15;13.35;;;6.28;;
40541;SDS011;49288;52.194;5.676;2022-09-09T18:28:17;15.13;;;6.65;;
40541;SDS011;49288;52.194;5.676;2022-09-09T18:33:26;12.10;;;6.05;;
40541;SDS011;49288;52.194;5.676;2022-09-09T18:38:30;11.77;;;5.95;;
40541;SDS011;49288;52.194;5.676;2022-09-09T18:43:36;16.02;;;7.35;;
40541;SDS011;49288;52.194;5.676;2022-09-09T18:48:39;10.65;;;6.47;;
40541;SDS011;49288;52.194;5.676;2022-09-09T18:53:54;12.65;;;6.93;;
40541;SDS011;49288;52.194;5.676;2022-09-09T18:59:00;20.83;;;8.82;;
40541;SDS011;49288;52.194;5.676;2022-09-09T19:04:06;19.95;;;9.55;;
40541;SDS011;49288;52.194;5.676;2022-09-09T19:09:10;23.05;;;10.20;;
40541;SDS011;49288;52.194;5.676;2022-09-09T19:19:19;21.20;;;10.73;;
40541;SDS011;49288;52.194;5.676;2022-09-09T19:24:24;24.77;;;11.88;;
40541;SDS011;49288;52.194;5.676;2022-09-09T19:29:32;23.13;;;12.38;;
40541;SDS011;49288;52.194;5.676;2022-09-09T19:34:37;24.27;;;12.02;;
40541;SDS011;49288;52.194;5.676;2022-09-09T19:39:40;19.48;;;9.63;;
40541;SDS011;49288;52.194;5.676;2022-09-09T19:44:42;17.98;;;8.30;;
40541;SDS011;49288;52.194;5.676;2022-09-09T19:49:45;21.05;;;10.27;;
40541;SDS011;49288;52.194;5.676;2022-09-09T19:54:48;14.52;;;8.98;;
40541;SDS011;49288;52.194;5.676;2022-09-09T19:59:51;17.35;;;10.68;;
40541;SDS011;49288;52.194;5.676;2022-09-09T20:04:54;18.55;;;9.52;;
40541;SDS011;49288;52.194;5.676;2022-09-09T20:09:57;17.35;;;8.43;;
40541;SDS011;49288;52.194;5.676;2022-09-09T20:15:00;15.30;;;8.52;;
40541;SDS011;49288;52.194;5.676;2022-09-09T20:20:02;15.77;;;9.70;;
40541;SDS011;49288;52.194;5.676;2022-09-09T20:25:05;15.13;;;10.30;;
40541;SDS011;49288;52.194;5.676;2022-09-09T20:30:08;16.00;;;10.82;;
40541;SDS011;49288;52.194;5.676;2022-09-09T20:35:12;20.90;;;10.95;;
40541;SDS011;49288;52.194;5.676;2022-09-09T20:45:20;20.37;;;10.97;;
40541;SDS011;49288;52.194;5.676;2022-09-09T20:50:25;19.70;;;11.40;;
40541;SDS011;49288;52.194;5.676;2022-09-09T20:55:31;16.83;;;10.20;;
40541;SDS011;49288;52.194;5.676;2022-09-09T21:00:35;21.30;;;10.25;;
40541;SDS011;49288;52.194;5.676;2022-09-09T21:05:39;20.13;;;12.57;;
40541;SDS011;49288;52.194;5.676;2022-09-09T21:10:45;22.67;;;11.50;;
40541;SDS011;49288;52.194;5.676;2022-09-09T21:15:48;18.73;;;12.23;;
40541;SDS011;49288;52.194;5.676;2022-09-09T21:20:51;18.77;;;9.82;;
40541;SDS011;49288;52.194;5.676;2022-09-09T21:25:55;27.08;;;13.98;;
40541;SDS011;49288;52.194;5.676;2022-09-09T21:30:59;18.10;;;8.98;;
40541;SDS011;49288;52.194;5.676;2022-09-09T21:36:03;16.67;;;10.57;;
40541;SDS011;49288;52.194;5.676;2022-09-09T21:41:07;23.27;;;15.25;;
40541;SDS011;49288;52.194;5.676;2022-09-09T21:46:15;22.40;;;13.15;;
40541;SDS011;49288;52.194;5.676;2022-09-09T21:51:19;15.43;;;10.55;;
40541;SDS011;49288;52.194;5.676;2022-09-09T21:56:22;27.33;;;14.88;;
40541;SDS011;49288;52.194;5.676;2022-09-09T22:01:24;20.95;;;13.45;;
40541;SDS011;49288;52.194;5.676;2022-09-09T22:06:46;22.20;;;13.57;;
40541;SDS011;49288;52.194;5.676;2022-09-09T22:11:49;27.40;;;15.50;;
40541;SDS011;49288;52.194;5.676;2022-09-09T22:16:53;26.30;;;15.15;;
40541;SDS011;49288;52.194;5.676;2022-09-09T22:21:56;27.63;;;15.60;;
40541;SDS011;49288;52.194;5.676;2022-09-09T22:26:59;26.58;;;12.02;;
40541;SDS011;49288;52.194;5.676;2022-09-09T22:32:02;23.70;;;13.75;;
40541;SDS011;49288;52.194;5.676;2022-09-09T22:37:06;31.30;;;16.80;;
40541;SDS011;49288;52.194;5.676;2022-09-09T22:42:09;15.77;;;10.75;;
40541;SDS011;49288;52.194;5.676;2022-09-09T22:47:13;30.48;;;16.73;;
40541;SDS011;49288;52.194;5.676;2022-09-09T22:52:18;17.85;;;11.40;;
40541;SDS011;49288;52.194;5.676;2022-09-09T22:57:39;23.67;;;13.77;;
40541;SDS011;49288;52.194;5.676;2022-09-09T23:02:44;36.00;;;16.30;;
40541;SDS011;49288;52.194;5.676;2022-09-09T23:07:53;24.17;;;11.77;;
40541;SDS011;49288;52.194;5.676;2022-09-09T23:12:59;24.80;;;15.23;;
40541;SDS011;49288;52.194;5.676;2022-09-09T23:18:02;16.25;;;11.30;;
40541;SDS011;49288;52.194;5.676;2022-09-09T23:23:05;28.73;;;14.50;;
40541;SDS011;49288;52.194;5.676;2022-09-09T23:28:08;22.83;;;12.55;;
40541;SDS011;49288;52.194;5.676;2022-09-09T23:33:11;25.85;;;14.20;;
40541;SDS011;49288;52.194;5.676;2022-09-09T23:38:14;27.42;;;15.68;;
40541;SDS011;49288;52.194;5.676;2022-09-09T23:43:16;23.98;;;12.63;;
40541;SDS011;49288;52.194;5.676;2022-09-09T23:48:19;27.48;;;13.98;;
40541;SDS011;49288;52.194;5.676;2022-09-09T23:53:22;29.60;;;14.15;;
40541;SDS011;49288;52.194;5.676;2022-09-09T23:58:24;27.67;;;14.75;;
